createdAt,value
2024-04-18T00:01:21.090Z,96924.85
2024-04-18T00:03:48.190Z,96923.38
2024-04-18T00:06:14.703Z,96924.81
2024-04-18T00:08:41.680Z,96927.00
2024-04-18T00:11:37.577Z,96931.79
2024-04-18T00:14:11.607Z,96925.93
2024-04-18T00:16:38.134Z,96925.86
2024-04-18T00:19:17.693Z,96926.71
2024-04-18T00:21:58.011Z,96925.20
2024-04-18T00:24:30.765Z,96925.66
2024-04-18T00:26:57.528Z,96926.50
2024-04-18T00:29:37.311Z,96930.94
2024-04-18T00:32:13.767Z,96924.40
2024-04-18T00:35:00.444Z,96922.08
2024-04-18T00:37:36.470Z,96919.95
2024-04-18T00:40:03.398Z,96918.02
2024-04-18T00:42:37.034Z,96921.82
2024-04-18T00:45:07.285Z,96926.03
2024-04-18T00:47:48.676Z,96928.16
2024-04-18T00:50:17.108Z,96929.09
2024-04-18T00:52:45.658Z,96930.02
2024-04-18T00:55:29.245Z,96932.05
2024-04-18T00:58:12.075Z,96931.10
2024-04-18T01:00:42.755Z,96929.91
2024-04-18T01:03:29.018Z,96931.42
2024-04-18T01:06:08.788Z,96930.43
2024-04-18T01:08:54.877Z,96932.03
2024-04-18T01:11:31.698Z,96927.40
2024-04-18T01:14:06.391Z,96930.23
2024-04-18T01:16:52.891Z,96935.59
2024-04-18T01:19:20.350Z,96938.65
2024-04-18T01:21:47.356Z,96938.58
2024-04-18T01:24:15.238Z,96939.48
2024-04-18T01:26:42.243Z,96938.98
2024-04-18T01:29:08.838Z,96941.27
2024-04-18T01:31:35.480Z,96943.47
2024-04-18T01:34:04.563Z,96943.27
2024-04-18T01:36:31.192Z,96942.15
2024-04-18T01:39:17.822Z,96943.77
2024-04-18T01:41:44.496Z,96945.16
2024-04-18T01:44:30.965Z,96942.82
2024-04-18T01:47:27.061Z,96941.33
2024-04-18T01:50:09.713Z,96943.07
2024-04-18T01:52:38.595Z,96946.13
2024-04-18T01:55:08.719Z,96946.55
2024-04-18T01:57:37.141Z,96944.33
2024-04-18T02:00:22.637Z,96945.83
2024-04-18T02:02:49.246Z,96949.11
2024-04-18T02:05:34.427Z,96947.70
2024-04-18T02:08:16.539Z,96949.50
2024-04-18T02:10:46.008Z,96950.48
2024-04-18T02:13:33.548Z,96952.94
2024-04-18T02:16:00.038Z,96952.81
2024-04-18T02:18:26.602Z,96952.26
2024-04-18T02:21:12.547Z,96954.58
2024-04-18T02:23:51.606Z,96954.28
2024-04-18T02:26:18.265Z,96954.02
2024-04-18T02:28:44.971Z,96956.80
2024-04-18T02:31:17.236Z,96953.60
2024-04-18T02:33:49.831Z,96954.86
2024-04-18T02:36:16.469Z,96960.95
2024-04-18T02:38:42.930Z,96959.36
2024-04-18T02:41:09.418Z,96965.63
2024-04-18T02:43:52.715Z,96964.88
2024-04-18T02:46:19.879Z,96963.73
2024-04-18T02:49:05.017Z,96969.63
2024-04-18T02:51:32.111Z,96970.59
2024-04-18T02:54:14.084Z,96972.04
2024-04-18T02:56:41.718Z,96969.70
2024-04-18T02:59:10.786Z,96965.52
2024-04-18T03:01:50.395Z,96970.95
2024-04-18T03:04:17.263Z,96967.80
2024-04-18T03:06:47.347Z,96968.41
2024-04-18T03:09:15.463Z,96973.50
2024-04-18T03:11:54.735Z,96968.49
2024-04-18T03:14:40.932Z,96966.23
2024-04-18T03:17:08.448Z,96966.65
2024-04-18T03:19:53.687Z,96966.60
2024-04-18T03:22:26.962Z,96964.98
2024-04-18T03:25:01.130Z,96966.83
2024-04-18T03:27:30.656Z,96969.67
2024-04-18T03:29:57.567Z,96967.22
2024-04-18T03:32:36.843Z,96967.04
2024-04-18T03:35:04.672Z,96963.96
2024-04-18T03:37:31.205Z,96969.52
2024-04-18T03:39:57.761Z,96968.11
2024-04-18T03:42:24.289Z,96969.09
2024-04-18T03:44:56.772Z,96967.40
2024-04-18T03:47:24.070Z,96968.35
2024-04-18T03:50:08.947Z,96963.98
2024-04-18T03:52:39.684Z,96968.05
2024-04-18T03:55:06.385Z,96965.64
2024-04-18T03:57:49.513Z,96970.94
2024-04-18T04:00:16.333Z,96971.34
2024-04-18T04:02:42.978Z,96973.77
2024-04-18T04:05:09.479Z,96974.33
2024-04-18T04:07:36.095Z,96977.18
2024-04-18T04:10:02.721Z,96980.66
2024-04-18T04:12:29.440Z,96981.98
2024-04-18T05:37:54.044Z,97040.71
2024-04-18T06:38:48.479Z,97072.73
2024-04-18T06:41:14.937Z,97075.41
2024-04-18T06:43:41.727Z,97078.30
2024-04-18T06:46:08.582Z,97076.80
2024-04-18T06:48:35.087Z,97077.87
2024-04-18T06:51:01.571Z,97079.78
2024-04-18T06:53:28.227Z,97078.04
2024-04-18T06:55:54.745Z,97080.97
2024-04-18T06:58:21.244Z,97082.05
2024-04-18T07:00:47.869Z,97081.94
2024-04-18T07:03:14.572Z,97081.90
2024-04-18T07:05:51.476Z,97089.54
2024-04-18T07:08:21.350Z,97091.20
2024-04-18T07:10:48.168Z,97093.36
2024-04-18T07:13:28.167Z,97095.81
2024-04-18T07:15:59.121Z,97097.83
2024-04-18T07:18:44.787Z,97100.41
2024-04-18T07:21:11.671Z,97101.45
2024-04-18T07:23:38.234Z,97099.42
2024-04-18T07:26:05.454Z,97100.52
2024-04-18T07:28:32.257Z,97102.89
2024-04-18T07:30:58.803Z,97102.30
2024-04-18T07:33:25.841Z,97097.02
2024-04-18T07:35:56.642Z,97094.98
2024-04-18T07:38:28.903Z,97095.54
2024-04-18T07:40:55.554Z,97097.64
2024-04-18T07:43:22.070Z,97095.29
2024-04-18T07:45:48.889Z,97101.05
2024-04-18T07:48:15.549Z,97103.56
2024-04-18T07:50:42.413Z,97102.38
2024-04-18T07:53:10.444Z,97101.84
2024-04-18T07:55:38.245Z,97100.73
2024-04-18T07:58:06.001Z,97099.99
2024-04-18T08:00:35.581Z,97099.48
2024-04-18T08:03:05.803Z,97098.35
2024-04-18T08:05:36.036Z,97095.02
2024-04-18T08:08:07.789Z,97095.22
2024-04-18T08:10:45.959Z,97100.85
2024-04-18T08:13:26.891Z,97099.66
2024-04-18T08:18:24.559Z,97104.91
2024-04-18T08:20:51.347Z,97106.44
2024-04-18T08:23:19.989Z,97105.94
2024-04-18T08:25:47.943Z,97103.86
2024-04-18T08:28:14.761Z,97100.84
2024-04-18T08:30:41.679Z,97099.86
2024-04-18T08:33:08.653Z,97099.23
2024-04-18T08:35:35.408Z,97098.34
2024-04-18T08:38:02.298Z,97096.91
2024-04-18T08:40:29.154Z,97094.30
2024-04-18T08:42:55.778Z,97097.75
2024-04-18T08:45:26.125Z,97094.49
2024-04-18T08:47:55.057Z,97090.63
2024-04-18T08:50:23.474Z,97081.01
2024-04-18T08:52:52.552Z,97089.04
2024-04-18T08:55:19.067Z,97090.67
2024-04-18T08:57:52.799Z,97089.81
2024-04-18T09:00:26.613Z,97089.48
2024-04-18T09:02:53.524Z,97084.41
2024-04-18T09:05:20.145Z,97088.75
2024-04-18T09:07:46.947Z,97092.58
2024-04-18T09:10:14.325Z,97089.44
2024-04-18T09:12:40.951Z,97088.86
2024-04-18T09:15:07.839Z,97091.31
2024-04-18T09:17:34.851Z,97089.52
2024-04-18T09:20:01.575Z,97089.60
2024-04-18T09:22:28.150Z,97090.91
2024-04-18T09:24:54.983Z,97090.85
2024-04-18T09:27:21.457Z,97088.09
2024-04-18T09:29:48.169Z,97095.13
2024-04-18T09:32:15.296Z,97091.77
2024-04-18T09:34:43.709Z,97092.11
2024-04-18T09:37:12.546Z,97087.19
2024-04-18T09:39:43.465Z,97085.51
2024-04-18T09:42:19.802Z,97087.71
2024-04-18T09:44:53.786Z,97085.87
2024-04-18T09:47:24.124Z,97080.98
2024-04-18T09:49:54.066Z,97079.30
2024-04-18T09:52:22.138Z,97082.82
2024-04-18T09:54:50.693Z,97079.37
2024-04-18T09:57:17.592Z,97075.85
2024-04-18T09:59:46.082Z,97083.46
2024-04-18T10:02:13.636Z,97081.30
2024-04-18T10:04:41.601Z,97082.46
2024-04-18T10:07:11.500Z,97086.45
2024-04-18T10:09:40.024Z,97086.02
2024-04-18T10:12:09.320Z,97089.17
2024-04-18T10:14:39.085Z,97089.80
2024-04-18T10:17:06.134Z,97094.32
2024-04-18T10:19:32.856Z,97101.40
2024-04-18T10:22:11.624Z,97098.71
2024-04-18T10:24:51.539Z,97099.82
2024-04-18T10:27:18.354Z,97103.33
2024-04-18T10:29:57.735Z,97103.41
2024-04-18T10:32:29.812Z,97106.28
2024-04-18T10:34:59.418Z,97103.23
2024-04-18T10:37:25.891Z,97098.55
2024-04-18T10:39:53.437Z,97094.66
2024-04-18T10:42:21.028Z,97089.65
2024-04-18T10:44:48.571Z,97090.56
2024-04-18T10:47:19.191Z,97088.68
2024-04-18T10:49:46.141Z,97091.79
2024-04-18T10:52:17.254Z,97087.13
2024-04-18T10:54:45.016Z,97088.61
2024-04-18T10:57:12.494Z,97094.15
2024-04-18T10:59:39.777Z,97100.88
2024-04-18T11:02:08.088Z,97108.08
2024-04-18T11:04:35.304Z,97110.11
2024-04-18T11:07:02.570Z,97112.85
2024-04-18T11:09:29.369Z,97114.02
2024-04-18T11:11:56.335Z,97111.08
2024-04-18T11:14:23.158Z,97115.11
2024-04-18T11:16:57.554Z,97111.90
2024-04-18T11:19:25.398Z,97114.66
2024-04-18T11:21:52.691Z,97106.73
2024-04-18T11:24:28.290Z,97112.66
2024-04-18T11:26:55.001Z,97113.89
2024-04-18T11:29:26.319Z,97116.50
2024-04-18T11:31:53.325Z,97117.66
2024-04-18T11:34:19.935Z,97123.23
2024-04-18T11:36:47.582Z,97127.63
2024-04-18T11:39:14.357Z,97126.75
2024-04-18T11:41:41.215Z,97131.70
2024-04-18T11:44:08.358Z,97134.69
2024-04-18T11:46:35.175Z,97128.39
2024-04-18T11:49:01.814Z,97132.01
2024-04-18T11:51:28.719Z,97132.93
2024-04-18T11:53:55.359Z,97130.29
2024-04-18T11:56:34.268Z,97131.75
2024-04-18T11:59:00.999Z,97134.39
2024-04-18T12:01:33.839Z,97135.96
2024-04-18T12:04:18.893Z,97133.79
2024-04-18T12:06:45.938Z,97136.79
2024-04-18T12:09:27.283Z,97139.20
2024-04-18T12:11:58.312Z,97143.75
2024-04-18T12:14:24.830Z,97141.91
2024-04-18T12:16:56.368Z,97140.46
2024-04-18T12:19:52.259Z,97141.36
2024-04-18T12:22:36.742Z,97141.68
2024-04-18T12:25:16.999Z,97139.02
2024-04-18T12:27:44.202Z,97143.80
2024-04-18T12:30:30.716Z,97141.58
2024-04-18T12:33:16.590Z,97145.63
2024-04-18T12:35:44.519Z,97143.55
2024-04-18T12:38:11.352Z,97146.70
2024-04-18T12:40:45.001Z,97148.67
2024-04-18T12:43:12.495Z,97152.73
2024-04-18T12:46:06.151Z,97152.60
2024-04-18T12:48:50.967Z,97161.70
2024-04-18T12:51:18.454Z,97161.29
2024-04-18T12:53:45.288Z,97162.77
2024-04-18T12:56:12.247Z,97157.48
2024-04-18T12:58:42.782Z,97151.29
2024-04-18T13:01:10.647Z,97148.73
2024-04-18T13:03:41.148Z,97146.98
2024-04-18T13:06:27.460Z,97143.52
2024-04-18T13:08:55.918Z,97142.34
2024-04-18T13:11:41.048Z,97136.77
2024-04-18T13:14:08.486Z,97127.09
2024-04-18T13:16:35.629Z,97127.65
2024-04-18T13:19:10.135Z,97133.52
2024-04-18T13:21:37.232Z,97133.81
2024-04-18T13:24:04.166Z,97134.59
2024-04-18T13:26:51.619Z,97138.95
2024-04-18T13:29:19.430Z,97146.73
2024-04-18T13:31:47.247Z,97152.00
2024-04-18T13:34:20.435Z,97156.74
2024-04-18T13:36:47.553Z,97163.95
2024-04-18T13:39:14.791Z,97173.08
2024-04-18T13:41:41.597Z,97176.48
2024-04-18T13:44:17.793Z,97184.62
2024-04-18T13:46:45.353Z,97190.48
2024-04-18T13:49:33.027Z,97189.55
2024-04-18T13:52:00.134Z,97191.11
2024-04-18T13:54:33.793Z,97189.20
2024-04-18T13:57:01.065Z,97194.08
2024-04-18T13:59:41.166Z,97186.45
2024-04-18T14:02:27.477Z,97180.58
2024-04-18T14:05:22.351Z,97183.03
2024-04-18T14:08:04.577Z,97180.52
2024-04-18T14:10:31.433Z,97177.48
2024-04-18T14:13:16.633Z,97170.38
2024-04-18T14:15:52.347Z,97167.27
2024-04-18T14:18:38.280Z,97166.16
2024-04-18T14:21:05.287Z,97166.65
2024-04-18T14:23:31.782Z,97165.95
2024-04-18T14:26:00.030Z,97168.80
2024-04-18T14:28:31.725Z,97169.45
2024-04-18T14:31:18.554Z,97166.35
2024-04-18T14:33:48.026Z,97166.47
2024-04-18T14:36:14.974Z,97163.23
2024-04-18T14:38:41.674Z,97163.25
2024-04-18T14:41:12.162Z,97159.13
2024-04-18T14:43:39.454Z,97157.09
2024-04-18T14:46:06.456Z,97152.19
2024-04-18T14:48:45.587Z,97155.04
2024-04-18T14:51:22.659Z,97161.59
2024-04-18T14:53:49.444Z,97171.52
2024-04-18T14:56:16.595Z,97178.22
2024-04-18T14:59:01.422Z,97177.12
2024-04-18T15:01:28.703Z,97180.35
2024-04-18T15:03:55.341Z,97183.66
2024-04-18T15:06:22.269Z,97186.71
2024-04-18T15:09:18.254Z,97183.48
2024-04-18T15:11:57.223Z,97189.15
2024-04-18T15:14:37.085Z,97191.30
2024-04-18T15:17:08.184Z,97191.88
2024-04-18T15:19:35.724Z,97191.94
2024-04-18T15:22:21.431Z,97191.16
2024-04-18T15:24:48.056Z,97192.77
2024-04-18T15:27:14.868Z,97194.30
2024-04-18T15:29:41.796Z,97202.51
2024-04-18T15:32:21.650Z,97215.17
2024-04-18T15:34:49.225Z,97215.49
2024-04-18T15:37:35.081Z,97216.93
2024-04-18T15:40:02.199Z,97215.14
2024-04-18T15:42:28.813Z,97221.67
2024-04-18T15:44:55.329Z,97223.07
2024-04-18T15:47:33.011Z,97229.19
2024-04-18T15:50:17.976Z,97232.15
2024-04-18T15:52:45.539Z,97237.76
2024-04-18T15:55:30.171Z,97249.58
2024-04-18T15:58:17.610Z,97246.80
2024-04-18T16:00:44.298Z,97251.38
2024-04-18T16:03:31.783Z,97241.36
2024-04-18T16:06:19.877Z,97245.25
2024-04-18T16:09:06.680Z,97245.04
2024-04-18T16:11:39.592Z,97246.44
2024-04-18T16:14:06.127Z,97251.88
2024-04-18T16:16:32.696Z,97251.80
2024-04-18T16:19:08.365Z,97250.83
2024-04-18T16:21:35.045Z,97247.27
2024-04-18T16:24:15.259Z,97248.33
2024-04-18T16:26:41.940Z,97244.66
2024-04-18T16:29:08.464Z,97250.27
2024-04-18T16:31:40.850Z,97245.92
2024-04-18T16:34:16.788Z,97252.91
2024-04-18T16:36:44.922Z,97254.34
2024-04-18T16:39:14.109Z,97255.65
2024-04-18T16:41:41.331Z,97254.44
2024-04-18T16:44:08.091Z,97255.65
2024-04-18T16:46:34.573Z,97254.77
2024-04-18T16:49:01.256Z,97252.45
2024-04-18T16:51:27.939Z,97249.96
2024-04-18T16:53:55.971Z,97250.37
2024-04-18T16:56:22.899Z,97247.84
2024-04-18T16:58:53.365Z,97250.45
2024-04-18T17:01:20.629Z,97252.02
2024-04-18T17:03:47.528Z,97251.80
2024-04-18T17:06:41.863Z,97257.02
2024-04-18T17:09:16.239Z,97257.44
2024-04-18T17:11:43.075Z,97261.55
2024-04-18T17:14:28.702Z,97264.27
2024-04-18T17:16:55.142Z,97269.83
2024-04-18T17:19:21.878Z,97272.61
2024-04-18T17:21:49.147Z,97273.66
2024-04-18T17:24:15.688Z,97277.00
2024-04-18T17:27:01.334Z,97276.21
2024-04-18T17:29:28.233Z,97276.48
2024-04-18T17:31:54.917Z,97274.30
2024-04-18T17:34:21.881Z,97276.89
2024-04-18T17:36:48.551Z,97278.62
2024-04-18T17:39:35.935Z,97286.25
2024-04-18T17:42:03.014Z,97289.96
2024-04-18T17:44:50.062Z,97292.49
2024-04-18T17:47:27.665Z,97293.38
2024-04-18T17:49:54.627Z,97294.53
2024-04-18T17:52:24.470Z,97295.66
2024-04-18T17:54:51.098Z,97294.53
2024-04-18T17:57:17.596Z,97296.94
2024-04-18T18:00:05.756Z,97299.20
2024-04-18T18:02:38.949Z,97304.52
2024-04-18T18:05:05.546Z,97305.85
2024-04-18T18:07:32.119Z,97306.78
2024-04-18T18:09:58.767Z,97311.38
2024-04-18T18:12:25.428Z,97313.98
2024-04-18T18:14:52.039Z,97315.94
2024-04-18T18:17:18.615Z,97328.65
2024-04-18T18:19:45.324Z,97332.52
2024-04-18T18:22:11.957Z,97346.02
2024-04-18T18:24:38.851Z,97351.50
2024-04-18T18:27:05.514Z,97362.66
2024-04-18T18:29:32.447Z,97364.10
2024-04-18T18:32:08.385Z,97373.41
2024-04-18T18:34:35.412Z,97378.16
2024-04-18T18:37:01.973Z,97382.33
2024-04-18T18:39:28.640Z,97386.36
2024-04-18T18:41:55.326Z,97391.80
2024-04-18T18:44:22.118Z,97394.01
2024-04-18T18:46:49.362Z,97396.32
2024-04-18T18:49:16.294Z,97402.13
2024-04-18T18:51:43.359Z,97405.61
2024-04-18T18:54:10.832Z,97399.98
2024-04-18T18:56:37.490Z,97395.44
2024-04-18T18:59:22.770Z,97390.34
2024-04-18T19:01:49.296Z,97385.73
2024-04-18T19:04:22.652Z,97377.27
2024-04-18T19:06:52.346Z,97375.52
2024-04-18T19:09:19.760Z,97375.71
2024-04-18T19:11:46.586Z,97379.98
2024-04-18T19:14:13.957Z,97382.98
2024-04-18T19:17:03.917Z,97384.02
2024-04-18T19:19:31.122Z,97382.38
2024-04-18T19:21:57.739Z,97382.95
2024-04-18T19:24:27.133Z,97388.09
2024-04-18T19:26:57.978Z,97393.95
2024-04-18T19:29:32.113Z,97392.33
2024-04-18T19:32:06.703Z,97392.52
2024-04-18T19:34:33.320Z,97391.72
2024-04-18T19:37:00.187Z,97390.82
2024-04-18T19:39:27.200Z,97389.21
2024-04-18T19:41:56.981Z,97391.61
2024-04-18T19:44:23.552Z,97385.13
2024-04-18T19:46:51.380Z,97384.73
2024-04-18T19:49:18.090Z,97388.95
2024-04-18T19:51:56.361Z,97386.31
2024-04-18T19:54:22.948Z,97386.92
2024-04-18T19:56:49.810Z,97391.46
2024-04-18T19:59:16.634Z,97394.55
2024-04-18T20:01:43.160Z,97393.95
2024-04-18T20:04:10.026Z,97394.17
2024-04-18T20:06:36.757Z,97395.02
2024-04-18T20:09:03.412Z,97395.24
2024-04-18T20:11:30.114Z,97394.45
2024-04-18T20:13:57.106Z,97394.98
2024-04-18T20:16:23.646Z,97392.23
2024-04-18T20:19:14.403Z,97392.93
2024-04-18T20:21:43.133Z,97391.55
2024-04-18T20:24:11.041Z,97391.33
2024-04-18T20:26:57.966Z,97392.91
2024-04-18T20:29:43.472Z,97393.97
2024-04-18T20:32:23.156Z,97392.66
2024-04-18T20:34:51.522Z,97392.98
2024-04-18T20:37:18.205Z,97394.63
2024-04-18T20:39:45.733Z,97390.94
2024-04-18T20:42:13.203Z,97395.20
2024-04-18T20:44:59.506Z,97399.59
2024-04-18T20:47:26.433Z,97403.85
2024-04-18T20:49:52.978Z,97406.85
2024-04-18T20:52:19.700Z,97401.75
2024-04-18T20:54:52.096Z,97402.09
2024-04-18T20:57:18.787Z,97403.98
2024-04-18T20:59:45.525Z,97405.55
2024-04-18T21:02:12.033Z,97401.11
2024-04-18T21:04:38.564Z,97404.27
2024-04-18T21:07:05.101Z,97406.66
2024-04-18T21:09:31.793Z,97406.30
2024-04-18T21:11:58.311Z,97405.95
2024-04-18T21:14:24.958Z,97407.78
2024-04-18T21:16:51.505Z,97402.92
2024-04-18T21:19:21.474Z,97404.02
2024-04-18T21:21:48.628Z,97404.44
2024-04-18T21:24:15.147Z,97402.97
2024-04-18T21:26:48.234Z,97406.13
2024-04-18T21:29:15.482Z,97406.05
2024-04-18T21:31:42.076Z,97402.53
2024-04-18T21:34:10.832Z,97404.14
2024-04-18T21:36:37.565Z,97408.09
2024-04-18T21:39:04.434Z,97407.95
2024-04-18T21:41:30.948Z,97411.45
2024-04-18T21:43:57.574Z,97411.86
2024-04-18T21:46:24.906Z,97413.80
2024-04-18T21:48:51.526Z,97411.33
2024-04-18T21:51:18.426Z,97409.52
2024-04-18T21:53:45.048Z,97413.34
2024-04-18T21:56:11.526Z,97412.80
2024-04-18T21:58:38.130Z,97414.62
2024-04-18T22:01:04.766Z,97416.09
2024-04-18T22:03:31.532Z,97416.27
2024-04-18T22:05:58.195Z,97420.20
2024-04-18T22:08:25.052Z,97418.40
2024-04-18T22:10:53.109Z,97421.92
2024-04-18T22:13:19.626Z,97421.33
2024-04-18T22:15:46.185Z,97420.03
2024-04-18T22:18:13.013Z,97422.42
2024-04-18T22:20:39.856Z,97421.48
2024-04-18T22:23:15.126Z,97417.77
2024-04-18T22:25:43.245Z,97417.98
2024-04-18T22:28:09.833Z,97419.31
2024-04-18T22:30:36.327Z,97421.97
2024-04-18T22:33:03.425Z,97424.26
2024-04-18T22:35:29.994Z,97421.23
2024-04-18T22:37:56.472Z,97422.09
2024-04-18T22:40:23.421Z,97423.03
2024-04-18T22:42:49.976Z,97424.17
2024-04-18T22:45:16.733Z,97424.08
2024-04-18T22:47:43.352Z,97419.58
2024-04-18T22:50:10.057Z,97417.15
2024-04-18T22:52:36.509Z,97415.23
2024-04-18T22:55:03.352Z,97411.94
2024-04-18T22:57:30.098Z,97410.16
2024-04-18T22:59:56.596Z,97408.39
2024-04-18T23:02:23.464Z,97406.64
2024-04-18T23:04:49.958Z,97407.27
2024-04-18T23:07:16.448Z,97404.54
2024-04-18T23:09:42.958Z,97404.98
2024-04-18T23:12:09.504Z,97403.26
2024-04-18T23:14:36.114Z,97404.05
2024-04-18T23:17:02.808Z,97403.88
2024-04-18T23:19:29.381Z,97403.08
2024-04-18T23:21:55.882Z,97400.09
2024-04-18T23:24:37.635Z,97401.66
2024-04-18T23:27:04.686Z,97402.16
2024-04-18T23:29:31.831Z,97400.25
2024-04-18T23:31:58.714Z,97399.02
2024-04-18T23:34:25.453Z,97400.21
2024-04-18T23:37:01.278Z,97398.09
2024-04-18T23:39:27.883Z,97400.63
2024-04-18T23:41:54.642Z,97403.33
2024-04-18T23:44:21.226Z,97398.54
2024-04-18T23:46:47.811Z,97398.73
2024-04-18T23:49:14.490Z,97396.60
2024-04-18T23:51:41.739Z,97396.14
2024-04-18T23:54:08.833Z,97397.13
2024-04-18T23:56:35.317Z,97398.34
2024-04-18T23:59:02.134Z,97397.37
